Time;durP1;ratioP1;P1;durP2;ratioP2;P2;SDS_P1;SDS_P2;PMS_P1;PMS_P2;Temp;Humidity;BMP_temperature;BMP_pressure;BME280_temperature;BME280_humidity;BME280_pressure;Samples;Min_cycle;Max_cycle;Signal;HPM_P1;HPM_P2
2022/07/25 00:02:12;;;;;;;3.10;2.65;;;;;;;25.23;50.45;93557.25;5077065;28;20093;-91
2022/07/25 00:04:38;;;;;;;2.92;2.10;;;;;;;25.22;50.16;93549.50;5056697;28;20028;-92
2022/07/25 00:07:03;;;;;;;2.63;2.35;;;;;;;25.21;50.42;93543.22;5067413;28;20423;-91
2022/07/25 00:09:29;;;;;;;3.15;2.63;;;;;;;25.21;50.37;93546.00;5034714;28;20507;-91
2022/07/25 00:11:54;;;;;;;2.35;2.15;;;;;;;25.21;50.35;93546.00;5076479;28;20059;-91
2022/07/25 00:14:21;;;;;;;3.03;2.10;;;;;;;25.21;50.27;93546.00;5075002;28;20032;-90
2022/07/25 00:16:46;;;;;;;2.40;2.03;;;;;;;25.20;50.52;93541.75;5058847;28;20040;-91
2022/07/25 00:19:12;;;;;;;2.85;2.10;;;;;;;25.20;50.34;93536.22;5077012;28;20047;-91
2022/07/25 00:21:37;;;;;;;2.80;2.40;;;;;;;25.21;50.46;93536.97;5039118;28;20040;-91
2022/07/25 00:24:03;;;;;;;2.55;2.08;;;;;;;25.17;50.32;93531.06;5039378;28;20032;-91
2022/07/25 00:26:28;;;;;;;2.42;2.10;;;;;;;25.18;50.25;93536.03;5055748;28;20135;-90
2022/07/25 00:28:54;;;;;;;2.95;2.38;;;;;;;25.20;50.27;93536.22;5039053;28;20036;-90
2022/07/25 00:31:19;;;;;;;3.10;2.33;;;;;;;25.20;50.35;93521.66;5037987;28;20581;-92
2022/07/25 00:33:44;;;;;;;3.38;2.65;;;;;;;25.17;50.29;93526.25;5019931;28;20554;-91
2022/07/25 00:36:10;;;;;;;2.60;2.40;;;;;;;25.16;50.29;93524.78;5036147;28;20400;-90
2022/07/25 00:38:36;;;;;;;2.97;2.13;;;;;;;25.19;50.53;93525.69;5032723;28;20373;-90
2022/07/25 00:41:02;;;;;;;3.05;2.63;;;;;;;25.19;50.27;93522.94;5052204;28;20515;-91
2022/07/25 00:43:27;;;;;;;2.67;2.20;;;;;;;25.18;50.52;93515.94;5070233;28;20040;-90
2022/07/25 00:45:52;;;;;;;3.70;2.33;;;;;;;25.17;50.25;93517.22;5056321;28;20044;-90
2022/07/25 00:48:18;;;;;;;2.80;2.50;;;;;;;25.17;50.32;93517.22;5038466;28;20487;-90
2022/07/25 00:50:43;;;;;;;3.38;3.08;;;;;;;25.16;50.50;93515.75;5055526;28;20488;-91
2022/07/25 00:53:09;;;;;;;2.60;2.38;;;;;;;25.14;50.58;93516.28;5054651;28;20036;-91
2022/07/25 00:55:34;;;;;;;2.90;2.50;;;;;;;25.18;50.30;93510.41;5050802;28;20495;-91
2022/07/25 00:58:00;;;;;;;3.15;2.80;;;;;;;25.16;50.18;93501.91;5052394;28;20048;-91
2022/07/25 01:00:25;;;;;;;3.40;2.75;;;;;;;25.14;49.97;93505.22;5049519;28;20040;-91
2022/07/25 01:02:50;;;;;;;2.58;2.35;;;;;;;25.17;50.35;93512.41;5035302;28;20526;-91
2022/07/25 01:05:16;;;;;;;2.83;2.53;;;;;;;25.17;50.42;93512.41;5034428;28;20480;-91
2022/07/25 01:07:41;;;;;;;3.47;2.88;;;;;;;25.15;50.08;93505.97;5077535;28;20036;-91
2022/07/25 01:10:07;;;;;;;3.25;2.60;;;;;;;25.16;50.23;93507.44;5055204;28;20020;-90
2022/07/25 01:12:43;;;;;;;2.67;2.45;;;;;;;25.13;50.45;93500.97;5027050;28;20090;-90
2022/07/25 01:15:09;;;;;;;3.20;2.60;;;;;;;25.13;50.62;93503.75;5054411;28;20048;-90
2022/07/25 01:17:34;;;;;;;3.50;2.92;;;;;;;25.14;50.44;93496.19;5068120;28;20482;-91
2022/07/25 01:20:00;;;;;;;2.50;2.05;;;;;;;25.14;50.34;93499.69;5048341;28;20032;-90
2022/07/25 01:22:25;;;;;;;3.08;2.40;;;;;;;25.14;50.15;93498.94;5074878;28;20039;-90
2022/07/25 01:24:51;;;;;;;3.58;2.65;;;;;;;25.13;50.32;93498.22;5057724;28;20252;-91
2022/07/25 01:27:16;;;;;;;3.63;2.78;;;;;;;25.13;50.39;93495.44;5057040;28;20092;-90
2022/07/25 01:29:41;;;;;;;2.85;2.42;;;;;;;25.12;50.14;93490.47;5089754;28;20044;-90
2022/07/25 01:32:07;;;;;;;2.75;2.30;;;;;;;25.14;50.34;93487.88;5065000;28;20036;-90
2022/07/25 01:34:32;;;;;;;2.78;2.35;;;;;;;25.11;50.28;93487.00;5066438;28;20040;-91
2022/07/25 01:36:58;;;;;;;2.50;2.08;;;;;;;25.13;50.36;93492.69;5055144;28;20040;-91
2022/07/25 01:39:27;;;;;;;2.45;2.20;;;;;;;25.12;50.28;93482.16;5069274;28;20040;-91
2022/07/25 01:41:52;;;;;;;2.88;2.47;;;;;;;25.13;50.27;93487.16;5071971;28;20154;-91
2022/07/25 01:44:17;;;;;;;3.83;2.95;;;;;;;25.11;50.45;93483.50;5075477;28;20029;-91
2022/07/25 01:46:43;;;;;;;3.25;2.40;;;;;;;25.09;50.20;93484.03;5070925;28;20032;-91
2022/07/25 01:49:08;;;;;;;3.30;2.63;;;;;;;25.11;50.62;93481.47;5052869;28;20040;-90
2022/07/25 01:51:34;;;;;;;3.45;2.67;;;;;;;25.11;50.40;93480.72;5038003;28;20570;-91
2022/07/25 01:53:59;;;;;;;3.00;2.70;;;;;;;25.09;50.23;93480.53;5054271;28;20395;-90
2022/07/25 01:56:25;;;;;;;2.95;2.67;;;;;;;25.08;50.35;93474.25;5064335;28;20506;-91
2022/07/25 01:58:50;;;;;;;3.00;2.35;;;;;;;25.12;50.05;93480.13;5090756;28;20044;-91
2022/07/25 02:01:15;;;;;;;3.00;2.67;;;;;;;25.11;50.19;93470.41;5088458;28;20513;-90
2022/07/25 02:03:41;;;;;;;3.08;2.50;;;;;;;25.10;50.35;93471.69;5049789;28;20490;-89
2022/07/25 02:06:06;;;;;;;2.53;2.33;;;;;;;25.09;50.33;93470.22;5057982;28;20035;-91
2022/07/25 02:08:32;;;;;;;3.00;2.70;;;;;;;25.08;50.29;93462.47;5055494;28;20034;-91
2022/07/25 02:10:58;;;;;;;2.35;2.15;;;;;;;25.08;50.09;93468.72;5072676;28;20119;-91
2022/07/25 02:13:23;;;;;;;2.72;2.45;;;;;;;25.09;50.33;93461.91;5088481;28;20635;-90
2022/07/25 02:15:49;;;;;;;3.22;2.40;;;;;;;25.08;50.28;93449.38;5073909;28;20510;-91
2022/07/25 02:18:14;;;;;;;2.85;2.38;;;;;;;25.06;50.25;93463.00;5083389;28;20032;-91
2022/07/25 02:20:40;;;;;;;2.63;2.10;;;;;;;25.09;50.27;93452.88;5036276;28;20044;-91
2022/07/25 02:23:05;;;;;;;2.55;2.35;;;;;;;25.09;50.29;93452.88;5053957;28;20036;-91
2022/07/25 02:25:31;;;;;;;2.60;2.30;;;;;;;25.08;50.21;93457.66;5035466;28;20036;-90
2022/07/25 02:27:56;;;;;;;3.45;2.70;;;;;;;25.07;50.34;93447.16;5036870;28;20138;-90
2022/07/25 02:30:21;;;;;;;2.55;2.20;;;;;;;25.08;49.96;93446.59;5052718;28;20514;-90
2022/07/25 02:32:47;;;;;;;3.55;2.47;;;;;;;25.06;50.20;93457.47;5024717;28;20403;-90
2022/07/25 02:35:12;;;;;;;2.38;2.03;;;;;;;25.08;50.23;93445.88;5033593;28;20535;-91
2022/07/25 02:37:39;;;;;;;2.85;2.20;;;;;;;25.07;50.26;93441.63;5069343;28;20036;-91
2022/07/25 02:40:05;;;;;;;3.15;2.78;;;;;;;25.07;50.31;93442.34;5090689;28;20456;-91
2022/07/25 02:42:31;;;;;;;2.85;2.30;;;;;;;25.05;50.24;93438.66;5054339;28;20032;-90
2022/07/25 02:44:56;;;;;;;3.10;2.28;;;;;;;25.06;50.12;93434.63;5060766;28;20040;-91
2022/07/25 02:47:22;;;;;;;3.08;2.40;;;;;;;25.06;50.26;93440.88;5048606;28;20032;-90
2022/07/25 02:49:47;;;;;;;3.00;2.45;;;;;;;25.05;50.32;93436.63;5038276;28;20052;-91
2022/07/25 02:52:13;;;;;;;3.03;2.40;;;;;;;25.05;50.26;93425.56;5033863;28;20032;-91
2022/07/25 02:54:38;;;;;;;3.03;2.53;;;;;;;25.05;50.30;93427.59;5048029;28;20041;-90
2022/07/25 02:57:04;;;;;;;3.28;2.80;;;;;;;25.04;50.19;93432.41;5030012;28;20041;-91
2022/07/25 02:59:29;;;;;;;3.63;2.65;;;;;;;25.06;50.00;93423.56;5011683;28;20266;-91
2022/07/25 03:01:54;;;;;;;3.08;2.65;;;;;;;25.03;50.27;93428.16;4997727;28;20041;-90
2022/07/25 03:04:20;;;;;;;3.22;2.60;;;;;;;25.04;50.32;93426.88;5027286;28;20033;-91
2022/07/25 03:06:45;;;;;;;3.85;3.00;;;;;;;25.04;50.19;93423.38;5028501;28;20048;-90
2022/07/25 03:09:11;;;;;;;3.15;2.63;;;;;;;25.04;50.43;93420.59;5023880;28;20040;-91
2022/07/25 03:11:36;;;;;;;3.60;2.83;;;;;;;25.03;50.18;93422.63;5016306;28;20041;-91
2022/07/25 03:14:02;;;;;;;3.05;2.75;;;;;;;25.04;50.68;93420.59;5032055;28;20040;-91
2022/07/25 03:16:27;;;;;;;2.63;2.40;;;;;;;25.03;50.39;93417.09;5031396;28;20036;-91
2022/07/25 03:18:53;;;;;;;2.40;1.92;;;;;;;25.03;50.06;93414.31;5012135;28;20033;-91
2022/07/25 03:21:18;;;;;;;2.88;2.50;;;;;;;25.03;50.10;93408.06;5006316;28;20041;-91
2022/07/25 03:23:44;;;;;;;2.55;2.35;;;;;;;25.03;50.02;93414.31;5033091;28;20099;-91
2022/07/25 03:26:09;;;;;;;2.65;2.20;;;;;;;25.03;50.16;93408.06;5017328;28;20041;-90
2022/07/25 03:28:35;;;;;;;3.05;2.50;;;;;;;25.02;50.08;93418.38;5032467;28;20033;-91
2022/07/25 03:31:00;;;;;;;3.22;2.60;;;;;;;25.02;50.17;93412.13;5015540;28;20043;-91
2022/07/25 03:33:26;;;;;;;2.63;2.30;;;;;;;25.01;50.13;93416.91;5013761;28;20471;-90
2022/07/25 03:35:51;;;;;;;3.60;2.55;;;;;;;25.01;50.11;93411.38;5015944;28;20122;-90
2022/07/25 03:38:16;;;;;;;3.20;2.60;;;;;;;24.99;50.11;93411.19;5020682;28;20025;-91
2022/07/25 03:40:42;;;;;;;2.42;2.22;;;;;;;25.01;49.93;93408.63;5000780;28;20041;-91
2022/07/25 03:43:07;;;;;;;2.70;2.47;;;;;;;25.02;49.96;93407.31;5017604;28;20029;-91
2022/07/25 03:45:33;;;;;;;3.05;2.63;;;;;;;24.98;48.99;93412.47;5026938;28;20037;-91
2022/07/25 03:47:58;;;;;;;3.72;2.67;;;;;;;24.96;48.64;93409.53;5034502;28;20033;-90
2022/07/25 03:50:23;;;;;;;3.72;3.00;;;;;;;24.94;48.33;93401.03;5052091;28;20033;-90
2022/07/25 03:52:49;;;;;;;3.67;3.15;;;;;;;24.90;48.00;93406.91;5037422;28;20033;-91
2022/07/25 03:55:14;;;;;;;3.83;3.42;;;;;;;24.91;47.79;93402.13;5036075;28;20033;-90
2022/07/25 03:57:40;;;;;;;8.80;4.15;;;;;;;24.83;47.63;93401.41;5036246;28;20045;-91
2022/07/25 04:00:06;;;;;;;4.95;4.45;;;;;;;24.86;47.15;93409.34;5053087;28;20102;-90
2022/07/25 04:02:32;;;;;;;5.55;4.35;;;;;;;24.83;47.40;93401.41;5035055;28;20131;-90
2022/07/25 04:04:57;;;;;;;5.43;4.93;;;;;;;24.77;47.11;93393.28;5052916;28;20054;-91
2022/07/25 04:07:22;;;;;;;6.50;5.57;;;;;;;24.78;46.98;93400.28;5053236;28;20040;-91
2022/07/25 04:09:48;;;;;;;9.05;5.60;;;;;;;24.91;46.32;93393.81;5040133;28;20044;-91
2022/07/25 04:12:13;;;;;;;5.95;5.25;;;;;;;24.89;46.52;93388.13;5093907;28;20032;-90
2022/07/25 04:14:39;;;;;;;6.50;5.30;;;;;;;24.90;46.37;93398.63;5074460;28;20028;-89
2022/07/25 04:17:05;;;;;;;6.25;5.65;;;;;;;24.92;46.00;93398.06;5092376;28;20036;-90
2022/07/25 04:19:30;;;;;;;9.40;6.55;;;;;;;24.96;46.10;93397.72;5037782;28;20028;-89
2022/07/25 04:21:56;;;;;;;6.38;5.70;;;;;;;24.83;43.83;93399.38;5049467;28;20152;-88
2022/07/25 04:24:21;;;;;;;12.95;9.35;;;;;;;24.83;42.72;93398.63;5051626;28;20024;-88
2022/07/25 04:26:47;;;;;;;41.15;26.65;;;;;;;24.65;42.03;93392.19;5051387;28;20117;-88
2022/07/25 04:29:12;;;;;;;31.05;18.52;;;;;;;24.58;42.19;93396.44;5038353;28;20109;-88
2022/07/25 04:31:38;;;;;;;47.55;25.85;;;;;;;24.47;42.31;93405.06;5039395;28;20032;-89
2022/07/25 04:34:03;;;;;;;37.83;29.98;;;;;;;24.41;42.28;93399.00;5052906;28;20048;-90
2022/07/25 04:36:29;;;;;;;56.85;45.15;;;;;;;24.38;42.47;93402.13;5038067;28;20052;-89
2022/07/25 04:38:54;;;;;;;32.97;19.88;;;;;;;24.31;41.83;93398.03;5039815;28;20115;-88
2022/07/25 04:41:21;;;;;;;26.67;17.60;;;;;;;24.26;42.17;93394.16;5043979;28;20041;-90
2022/07/25 04:43:47;;;;;;;40.17;21.10;;;;;;;24.24;42.46;93394.00;5034463;28;20041;-88
2022/07/25 04:46:18;;;;;;;507.88;453.10;;;;;;;24.23;42.25;93391.75;5071076;28;20524;-92
2022/07/25 04:48:44;;;;;;;15.05;12.05;;;;;;;24.19;41.99;93386.59;5012067;28;20061;-89
2022/07/25 04:51:10;;;;;;;16.90;10.55;;;;;;;24.11;42.30;93391.34;4979175;28;20497;-90
2022/07/25 04:53:36;;;;;;;26.80;10.77;;;;;;;24.05;42.31;93387.28;4965746;28;20069;-92
2022/07/25 04:56:06;;;;;;;27.88;13.55;;;;;;;24.04;42.45;93389.31;4987679;28;20064;-91
2022/07/25 04:58:39;;;;;;;15.60;10.70;;;;;;;24.02;42.78;93389.13;4971772;28;20073;-94
2022/07/25 05:01:06;;;;;;;18.23;12.40;;;;;;;23.95;43.10;93387.09;5008733;28;20042;-94
2022/07/25 05:03:33;;;;;;;19.75;12.90;;;;;;;23.98;43.70;93382.50;4983467;28;20045;-90
2022/07/25 05:05:59;;;;;;;15.10;11.88;;;;;;;24.02;43.41;93371.84;4963040;28;20042;-90
2022/07/25 05:08:24;;;;;;;29.10;18.25;;;;;;;23.96;42.86;93374.75;4980961;28;20055;-90
2022/07/25 05:10:52;;;;;;;34.90;12.77;;;;;;;23.91;43.31;93383.94;4960942;28;20038;-88
2022/07/25 05:13:17;;;;;;;24.40;11.63;;;;;;;23.82;43.51;93378.94;4993792;28;20103;-91
2022/07/25 05:15:43;;;;;;;110.70;99.82;;;;;;;23.83;43.79;93372.13;4984851;28;20054;-91
2022/07/25 05:18:16;;;;;;;45.08;27.55;;;;;;;23.79;43.51;93358.69;4993750;28;20041;-90
2022/07/25 05:20:42;;;;;;;110.85;68.18;;;;;;;23.80;44.32;93362.19;4990978;28;20045;-92
2022/07/25 05:23:09;;;;;;;58.35;37.75;;;;;;;23.84;43.79;93360.53;4973408;28;20054;-92
2022/07/25 05:25:35;;;;;;;60.67;40.80;;;;;;;23.95;43.92;93358.72;4993216;28;20053;-95
2022/07/25 05:28:01;;;;;;;71.95;46.45;;;;;;;23.95;43.49;93358.72;5032667;28;20094;-92
2022/07/25 05:30:30;;;;;;;76.50;50.33;;;;;;;23.97;43.89;93358.94;5033515;28;20071;-92
2022/07/25 05:33:16;;;;;;;67.22;48.10;;;;;;;24.01;43.78;93345.50;5079428;23;20043;-93
2022/07/25 05:35:42;;;;;;;73.60;45.97;;;;;;;24.05;44.38;93348.63;5066909;28;20074;-93
2022/07/25 05:38:07;;;;;;;67.03;41.05;;;;;;;24.08;44.24;93348.25;5032297;28;20514;-92
2022/07/25 05:40:33;;;;;;;59.10;37.08;;;;;;;24.06;44.80;93341.81;5044480;28;20040;-92
2022/07/25 05:42:59;;;;;;;111.70;68.43;;;;;;;24.14;44.12;93351.59;5077784;28;20044;-93
2022/07/25 05:45:40;;;;;;;69.97;45.90;;;;;;;24.20;44.68;93335.59;5055887;28;20045;-94
2022/07/25 05:48:08;;;;;;;71.35;46.40;;;;;;;24.26;44.36;93329.88;5038330;28;20044;-93
2022/07/25 05:50:36;;;;;;;100.57;64.30;;;;;;;24.39;44.08;93337.28;5020234;28;20037;-92
2022/07/25 05:53:01;;;;;;;155.25;90.82;;;;;;;24.39;44.04;93332.50;5057053;28;20059;-90
2022/07/25 05:55:27;;;;;;;153.43;89.18;;;;;;;24.47;43.93;93335.25;5057217;28;20096;-92
2022/07/25 05:57:55;;;;;;;131.00;75.93;;;;;;;24.43;43.94;93330.09;5046807;28;20040;-92
2022/07/25 06:00:23;;;;;;;135.30;80.82;;;;;;;24.49;43.82;93336.16;5078479;23;20052;-93
2022/07/25 06:02:48;;;;;;;120.78;71.10;;;;;;;24.54;44.09;93329.72;5058427;28;20051;-93
2022/07/25 06:05:15;;;;;;;125.25;70.00;;;;;;;24.59;44.06;93333.59;5019960;28;20144;-93
2022/07/25 06:07:41;;;;;;;133.20;82.25;;;;;;;24.64;43.98;93335.44;5032288;28;20045;-92
2022/07/25 06:10:06;;;;;;;120.32;72.75;;;;;;;24.72;44.02;93335.41;5039353;28;20041;-93
2022/07/25 06:12:32;;;;;;;115.28;73.13;;;;;;;24.77;43.81;93338.00;5061315;28;20082;-92
2022/07/25 06:15:02;;;;;;;117.20;70.60;;;;;;;24.80;43.73;93341.69;5025922;28;20131;-95
2022/07/25 06:17:29;;;;;;;115.32;69.65;;;;;;;24.90;43.84;93339.81;5033152;28;20724;-93
2022/07/25 06:19:58;;;;;;;91.53;58.30;;;;;;;24.87;43.84;93338.91;5027747;28;20417;-92
2022/07/25 06:22:24;;;;;;;94.78;61.53;;;;;;;24.93;43.83;93342.22;5062245;28;20045;-91
2022/07/25 06:24:50;;;;;;;76.32;51.42;;;;;;;24.91;43.94;93333.00;5030086;28;20053;-93
2022/07/25 06:27:15;;;;;;;82.40;51.05;;;;;;;24.90;43.98;93337.03;5038811;28;20041;-94
2022/07/25 06:29:41;;;;;;;70.85;47.22;;;;;;;24.90;44.11;93331.50;5022154;28;20048;-91
2022/07/25 06:32:06;;;;;;;74.45;46.60;;;;;;;24.96;44.35;93334.13;5052547;28;20059;-93
2022/07/25 06:34:32;;;;;;;127.55;68.47;;;;;;;24.97;44.36;93327.31;5034659;28;20040;-93
2022/07/25 06:36:57;;;;;;;159.85;89.68;;;;;;;25.00;44.42;93329.69;5033838;28;20047;-95
2022/07/25 06:39:35;;;;;;;165.07;82.35;;;;;;;24.98;44.61;93337.81;5041466;28;20044;-93
2022/07/25 06:42:06;;;;;;;186.88;83.88;;;;;;;25.00;44.52;93338.00;5045869;28;20036;-95
2022/07/25 06:44:34;;;;;;;191.88;81.78;;;;;;;25.05;44.49;93322.50;5061123;28;20101;-94
2022/07/25 06:47:01;;;;;;;169.75;76.20;;;;;;;25.09;44.21;93322.88;5041213;28;20043;-93
2022/07/25 06:49:27;;;;;;;145.40;73.68;;;;;;;25.12;44.30;93327.25;5054494;28;20052;-91
2022/07/25 06:51:53;;;;;;;134.95;74.75;;;;;;;25.13;44.40;93323.94;5047223;28;20436;-93
2022/07/25 06:54:20;;;;;;;131.05;67.35;;;;;;;25.14;44.03;93321.91;5038781;28;20048;-91
2022/07/25 06:56:47;;;;;;;127.47;67.82;;;;;;;25.18;44.14;93316.72;5042214;28;20044;-90
2022/07/25 06:59:14;;;;;;;128.02;72.03;;;;;;;25.20;44.37;93316.91;5074122;28;20538;-90
2022/07/25 07:01:39;;;;;;;126.82;67.68;;;;;;;25.21;44.26;93318.38;5037916;28;20499;-91
2022/07/25 07:04:05;;;;;;;136.50;73.57;;;;;;;25.28;43.94;93323.16;5020823;28;20086;-93
2022/07/25 07:06:31;;;;;;;128.80;69.72;;;;;;;25.24;43.75;93314.50;5035038;28;20098;-92
2022/07/25 07:08:57;;;;;;;224.48;90.60;;;;;;;25.23;44.27;93313.78;5032979;28;20052;-93
2022/07/25 07:11:24;;;;;;;358.17;210.43;;;;;;;25.28;44.70;93309.34;5046614;28;20044;-94
2022/07/25 07:13:51;;;;;;;292.48;139.82;;;;;;;25.31;44.36;93316.53;5016598;28;20072;-95
2022/07/25 07:16:16;;;;;;;413.05;163.73;;;;;;;25.36;44.05;93309.28;5012076;28;20041;-93
2022/07/25 07:18:42;;;;;;;371.73;153.15;;;;;;;25.39;44.21;93306.16;4991698;28;20095;-94
2022/07/25 07:21:08;;;;;;;387.73;190.60;;;;;;;25.41;44.24;93309.09;5033181;28;20042;-91
2022/07/25 07:23:35;;;;;;;272.63;159.10;;;;;;;25.41;44.03;93298.03;5037424;28;20079;-92
2022/07/25 07:26:01;;;;;;;231.70;130.65;;;;;;;25.39;44.25;93305.41;5030611;28;20570;-94
2022/07/25 07:28:27;;;;;;;228.10;128.98;;;;;;;25.40;44.07;93302.09;5005878;28;20139;-94
2022/07/25 07:30:53;;;;;;;257.38;163.02;;;;;;;25.42;44.06;93293.22;5000017;28;20049;-93
2022/07/25 07:33:19;;;;;;;249.60;150.32;;;;;;;25.49;43.94;93295.97;5010001;28;20045;-91
2022/07/25 07:35:44;;;;;;;231.70;135.13;;;;;;;25.47;44.01;93300.59;4993953;28;20101;-92
2022/07/25 07:38:10;;;;;;;260.77;132.50;;;;;;;25.49;44.14;93301.50;4988742;28;20040;-92
2022/07/25 07:40:36;;;;;;;210.52;130.55;;;;;;;25.50;44.25;93300.22;5013289;28;20474;-93
2022/07/25 07:43:02;;;;;;;270.50;167.05;;;;;;;25.48;44.42;93302.06;5014708;28;20110;-95
2022/07/25 07:45:28;;;;;;;245.95;152.68;;;;;;;25.50;44.08;93305.00;5016546;28;20041;-93
2022/07/25 07:47:54;;;;;;;218.07;131.40;;;;;;;25.48;44.27;93302.81;5011300;28;20123;-89
2022/07/25 07:50:23;;;;;;;208.25;129.52;;;;;;;25.50;44.44;93308.50;5013043;28;20033;-95
2022/07/25 07:52:49;;;;;;;215.65;128.25;;;;;;;25.50;44.21;93300.22;5004792;28;20045;-93
2022/07/25 07:57:58;;;;;;;270.13;134.10;;;;;;;25.46;44.58;93293.56;5040700;28;20050;-93
2022/07/25 08:00:26;;;;;;;202.85;122.65;;;;;;;25.49;44.68;93295.22;5037496;28;20037;-94
2022/07/25 08:02:53;;;;;;;294.13;193.23;;;;;;;25.49;44.36;93287.66;5037225;28;20024;-93
2022/07/25 08:05:22;;;;;;;343.92;239.85;;;;;;;25.50;44.47;93291.91;5038774;28;20045;-93
2022/07/25 08:07:50;;;;;;;311.75;210.68;;;;;;;25.49;44.63;93289.69;5023883;28;20465;-93
2022/07/25 08:10:19;;;;;;;343.95;245.27;;;;;;;25.51;44.49;93292.63;5076760;28;20040;-92
2022/07/25 08:12:45;;;;;;;338.70;230.40;;;;;;;25.51;44.79;93282.31;5086325;28;20035;-93
2022/07/25 08:15:11;;;;;;;328.00;230.70;;;;;;;25.49;44.95;93282.13;5058949;28;20052;-90
2022/07/25 08:17:37;;;;;;;339.30;226.65;;;;;;;25.53;44.61;93288.03;5062188;28;20052;-93
2022/07/25 08:20:07;;;;;;;271.17;182.88;;;;;;;25.53;44.66;93281.75;5042835;28;20083;-92
2022/07/25 08:22:38;;;;;;;253.30;170.70;;;;;;;25.53;44.68;93282.47;5069687;28;20043;-94
2022/07/25 08:25:04;;;;;;;244.18;159.82;;;;;;;25.54;44.97;93275.66;5054273;28;20779;-95
2022/07/25 08:27:31;;;;;;;224.43;157.07;;;;;;;25.56;44.85;93280.59;5040751;28;20105;-92
2022/07/25 08:29:59;;;;;;;222.43;148.50;;;;;;;25.55;44.73;93279.88;5045960;28;20032;-91
2022/07/25 08:32:26;;;;;;;217.30;148.93;;;;;;;25.53;44.67;93274.19;5044052;28;20040;-93
2022/07/25 08:34:53;;;;;;;221.82;147.80;;;;;;;25.56;44.74;93273.03;5038770;28;20115;-92
2022/07/25 08:37:19;;;;;;;223.77;147.48;;;;;;;25.56;44.96;93267.50;5079007;28;20044;-91
2022/07/25 08:39:44;;;;;;;211.20;142.50;;;;;;;25.53;44.90;93265.88;5056308;28;20052;-90
2022/07/25 08:42:17;;;;;;;211.07;142.18;;;;;;;25.54;44.93;93266.59;5043179;28;20119;-91
2022/07/25 08:44:43;;;;;;;195.75;138.50;;;;;;;25.56;45.07;93270.25;5038148;28;20144;-93
2022/07/25 08:47:08;;;;;;;356.95;149.05;;;;;;;25.56;45.02;93267.50;5048826;28;20064;-91
2022/07/25 08:49:34;;;;;;;349.80;152.63;;;;;;;25.60;45.11;93261.56;5057596;28;20387;-93
2022/07/25 08:52:02;;;;;;;256.60;138.27;;;;;;;25.59;45.06;93266.38;5044675;28;20052;-93
2022/07/25 08:54:29;;;;;;;208.93;124.47;;;;;;;25.59;45.12;93252.53;5034916;28;20105;-94
2022/07/25 08:56:56;;;;;;;214.20;124.20;;;;;;;25.58;45.45;93262.13;5051626;28;20479;-94
2022/07/25 08:59:22;;;;;;;195.50;121.20;;;;;;;25.57;45.36;93252.34;5051066;28;20071;-94
2022/07/25 09:01:48;;;;;;;237.68;118.25;;;;;;;25.58;45.44;93250.31;5023175;28;20076;-93
2022/07/25 09:04:13;;;;;;;184.52;115.00;;;;;;;25.57;45.29;93266.19;5041143;28;20043;-93
2022/07/25 09:06:48;;;;;;;172.48;106.18;;;;;;;25.57;45.30;93266.19;5050867;28;20513;-92
2022/07/25 09:09:14;;;;;;;174.23;110.45;;;;;;;25.56;45.37;93258.44;5038485;28;20485;-93
2022/07/25 09:11:39;;;;;;;164.70;108.95;;;;;;;25.58;45.42;93259.38;5068913;28;20086;-92
2022/07/25 09:14:06;;;;;;;179.90;118.15;;;;;;;25.57;45.48;93260.66;5020977;28;20043;-93
2022/07/25 09:16:34;;;;;;;178.52;110.38;;;;;;;25.58;45.44;93256.59;5037838;28;20049;-95
2022/07/25 09:19:13;;;;;;;204.10;116.55;;;;;;;25.56;45.69;93259.19;5032563;28;20039;-96
2022/07/25 09:21:39;;;;;;;243.80;130.93;;;;;;;25.60;45.58;93262.31;5029142;28;20052;-92
2022/07/25 09:24:12;;;;;;;331.98;132.43;;;;;;;25.61;45.53;93263.03;5059214;28;20036;-93
2022/07/25 09:26:54;;;;;;;230.30;114.55;;;;;;;25.60;45.60;93256.78;5041970;28;20043;-92
2022/07/25 09:29:25;;;;;;;235.18;118.28;;;;;;;25.63;45.79;93248.66;5044339;28;20071;-91
2022/07/25 09:31:51;;;;;;;179.82;104.03;;;;;;;25.63;45.90;93254.94;5046382;28;20067;-93
2022/07/25 09:34:30;;;;;;;180.82;106.45;;;;;;;25.61;45.91;93249.94;5034725;28;20060;-95
2022/07/25 09:36:55;;;;;;;350.20;167.13;;;;;;;25.62;45.78;93256.22;5040658;28;20033;-93
2022/07/25 09:39:37;;;;;;;406.02;256.52;;;;;;;25.63;46.02;93251.44;5053279;28;20447;-94
2022/07/25 09:42:16;;;;;;;374.05;228.05;;;;;;;25.63;45.71;93256.97;5050305;28;20041;-94
2022/07/25 09:44:41;;;;;;;454.45;294.63;;;;;;;25.66;45.94;93256.59;5031872;28;20037;-94
2022/07/25 09:47:12;;;;;;;552.15;349.23;;;;;;;25.67;45.81;93257.31;5041698;28;20055;-93
2022/07/25 09:49:42;;;;;;;468.83;287.85;;;;;;;25.67;45.98;93246.25;5026861;28;20191;-93
2022/07/25 09:52:08;;;;;;;425.15;268.05;;;;;;;25.67;45.73;93249.75;5053173;28;20569;-94
2022/07/25 09:54:37;;;;;;;390.92;262.88;;;;;;;25.69;45.76;93251.97;5049714;28;20056;-95
2022/07/25 09:57:02;;;;;;;360.85;242.20;;;;;;;25.71;45.78;93249.38;5066713;28;20480;-94
2022/07/25 09:59:28;;;;;;;378.20;248.40;;;;;;;25.71;46.13;93244.56;5046360;28;20042;-95
2022/07/25 10:02:04;;;;;;;337.73;228.05;;;;;;;25.70;45.96;93253.44;5073297;28;20041;-93
2022/07/25 10:05:06;;;;;;;354.33;243.98;;;;;;;25.67;45.88;93243.50;5042283;28;20049;-93
2022/07/25 10:07:31;;;;;;;355.20;249.52;;;;;;;25.70;45.95;93248.63;5079741;28;20107;-94
2022/07/25 10:09:58;;;;;;;330.02;233.45;;;;;;;25.68;46.06;93240.16;5047773;28;20056;-92
2022/07/25 10:12:24;;;;;;;323.25;231.73;;;;;;;25.73;45.91;93244.75;5047485;28;20029;-93
2022/07/25 10:15:12;;;;;;;307.75;222.70;;;;;;;25.73;45.71;93241.25;5050304;28;20568;-94
2022/07/25 10:17:38;;;;;;;317.25;221.52;;;;;;;25.70;46.03;93231.28;5046262;28;20036;-94
2022/07/25 10:20:11;;;;;;;303.15;216.32;;;;;;;25.68;45.76;93237.38;5080610;28;20123;-95
2022/07/25 10:22:39;;;;;;;284.63;203.52;;;;;;;25.69;45.92;93241.63;5049435;28;20108;-94
2022/07/25 10:25:16;;;;;;;275.48;199.15;;;;;;;25.69;45.87;93229.81;5039927;28;20041;-92
2022/07/25 10:27:51;;;;;;;265.83;191.85;;;;;;;25.72;45.80;93240.50;5057356;28;20107;-96
2022/07/25 10:30:26;;;;;;;258.67;185.98;;;;;;;25.70;46.16;93229.25;5040138;28;20553;-92
2022/07/25 10:32:58;;;;;;;246.35;178.20;;;;;;;25.70;46.04;93220.22;5067941;28;20499;-91
2022/07/25 10:35:25;;;;;;;256.27;181.93;;;;;;;25.70;46.01;93228.53;5050996;28;20131;-92
2022/07/25 10:37:51;;;;;;;240.80;171.82;;;;;;;25.70;45.95;93225.75;5039260;28;20036;-91
2022/07/25 10:40:26;;;;;;;571.72;211.02;;;;;;;25.71;46.31;93227.97;5044555;28;20036;-92
2022/07/25 10:42:56;;;;;;;213.57;148.38;;;;;;;25.72;46.62;93226.66;5040933;28;20035;-93
2022/07/25 10:45:25;;;;;;;215.10;144.90;;;;;;;25.77;46.77;93222.91;5050284;28;20041;-89
2022/07/25 10:47:52;;;;;;;190.77;136.10;;;;;;;25.81;46.57;93211.44;5041134;28;20037;-92
2022/07/25 10:50:18;;;;;;;222.85;152.50;;;;;;;25.80;46.69;93218.28;5052051;28;20041;-90
2022/07/25 10:52:44;;;;;;;307.15;192.85;;;;;;;25.78;46.66;93218.84;5050393;28;20031;-92
2022/07/25 10:55:20;;;;;;;415.10;171.90;;;;;;;25.77;46.80;93209.06;5053984;28;20533;-94
2022/07/25 10:57:46;;;;;;;324.02;166.15;;;;;;;25.83;46.67;93206.09;5037104;28;20101;-92
2022/07/25 11:00:12;;;;;;;306.88;179.05;;;;;;;25.83;46.81;93204.06;5052917;28;20117;-92
2022/07/25 11:02:37;;;;;;;253.43;155.48;;;;;;;25.85;46.90;93207.00;5024973;28;20141;-92
2022/07/25 11:05:03;;;;;;;221.77;139.20;;;;;;;25.84;47.06;93202.75;5044482;28;20044;-92
2022/07/25 11:07:34;;;;;;;216.32;129.48;;;;;;;25.88;47.26;93205.13;5058836;28;20040;-92
2022/07/25 11:10:02;;;;;;;232.27;141.80;;;;;;;25.86;47.34;93202.94;5057493;28;20048;-93
2022/07/25 11:12:28;;;;;;;209.63;126.63;;;;;;;25.88;47.67;93205.13;5058921;28;20040;-90
2022/07/25 11:15:03;;;;;;;266.27;142.10;;;;;;;25.88;47.58;93192.03;5034697;28;20048;-93
2022/07/25 11:17:29;;;;;;;250.85;143.88;;;;;;;25.87;47.45;93196.09;5042822;28;20124;-91
2022/07/25 11:19:55;;;;;;;234.82;136.05;;;;;;;25.86;47.85;93193.88;5044440;28;20055;-93